Adna, Washington
Current Conditions -  °F | °C
As of 7:55 AM on Sunday 23 Nov 2014 (Local Time) from KCLS Reporting Station
Broken Clouds Broken Clouds  
Wind Chill: 41°   Ceiling: 9000
Heat Index: 46°   Visibility: 10mi
Dew Point: 46°   Wind: 13mph
Humidity: 100%   Direction: 190°S
Pressure: 30.14"   Gusts: 21mph
Location:  46.63°N, 123.06°W
Report Text: KCLS 231555Z AUTO 19011G18KT 10SM FEW013 SCT039 BKN090 08/08 A3014 RMK AO2
Loading
Personal Weather Stations






























Interactive Weather Map New forecast layout! Learn more

10-Day Weather Forecast

Advertisements
Track Severe Weather on mobile